Etusivu
METAR-TAF:

METAR-TAF

Lentoasemat :

Elkhart Municipal Airport

Elkhart, Indiana, Yhdysvallat

Leveyspiiri: 41-43N, Pituuspiiri: 086-00W, korkeus merenpinnasta: 237 m

Tämänhetkinen sää

Tämä raportti tehtiin 41 minuuttia sitten, kello 14.50 UTC
Tuuli 7 kn etelästä
Lämpötila 2°C
Kosteus 100%
Ilmanpaine 1006 hPa
Näkyvyys: 6.4 km
Pilvistä 700 ft:n korkeudessa
heikkoa sadetta

METAR: KEKM 181450Z 19007KT 4SM -RA OVC007 02/02 A2971 RMK AO2

Aika: 10:31 (15:31 UTC)


TAF: puuttuu

Säähavainnot ja -ennusteet yli 4000 lentoasemalta (METAR- ja TAF-raportit).

Käytössä olevat sääasemat on merkitty karttaan keltaisilla ja punaisilla pisteillä.

Aseta hiiri pisteen päälle nähdäksesi sääaseman nimen.

Klikkaa sitten nähdäksesi säähavainnot ja -ennusteet.

Kartan vaihtaminen: klikkaa mustalla rastilla varustettuja vihreitä pisteitä, niin voit zoomata sisään; viivalla varustettua vihreää pistettä, niin voit zoomata ulos tai vihreitä nuolia, niin pääset viereisille kartoille.


METAR-TAF: